Maran Gas Agamemnon — SVCH6 — position and weather

sailwx.info

Track history (hours):
 
Tides and Currents Weather Stations Pressure Air Temp Water Temp Dewpoint Dewpoint Depression Visibility Wind Speed Wind Dir Waves Ship Positions

Maran Gas Agamemnon

Last reported at 2017-Sep-14 16:35 UTC. Time now 2017-Sep-25 13:41 UTC.
Position N 31°24' E 032°17'.
Warning: this ship's position is 10 days out of date.

Length 290 m; draft 11.5 m.

Type: Tanker. MMSI: 241405000.

Date/timePositionNaut miles runAvg speedWind from/ knotsBaromVisibWave heightAir tempDewpointWater temp
2017-Sep-14 16:35N 31°24' E 032°17'0 0.5
2017-Sep-14 16:30N 31°24' E 032°17'2 2.5
2017-Sep-14 15:48N 31°26' E 032°16'3 5.9
2017-Sep-14 15:17N 31°29' E 032°16'3 8.2
2017-Sep-14 14:58N 31°31' E 032°14'4 8.9
2017-Sep-14 14:30N 31°34' E 032°10'5 9.8
2017-Sep-14 13:59N 31°37' E 032°06'710.9
2017-Sep-14 13:22N 31°42' E 032°00'512.9
2017-Sep-14 13:00N 31°45' E 031°56'714.1
2017-Sep-14 12:30N 31°48' E 031°48'815.1
2017-Sep-14 11:59N 31°51' E 031°40'1216.0
2017-Sep-14 11:14N 31°56' E 031°27'86517.1
2017-Sep-12 08:39N 36°21' E 014°52'417.4
2017-Sep-12 08:27N 36°22' E 014°48'817.5
2017-Sep-12 08:00N 36°24' E 014°38'918.5
2017-Sep-12 07:30N 36°26' E 014°27'918.7
2017-Sep-12 07:00N 36°28' E 014°16'919.0
2017-Sep-12 06:30N 36°31' E 014°05'919.0
2017-Sep-12 06:00N 36°33' E 013°53'2618.3
2017-Sep-12 04:36N 36°42' E 013°23'317.9
2017-Sep-12 04:24N 36°44' E 013°19'89017.4
2017-Sep-10 01:13N 35°58' W 005°05'420.3
2017-Sep-10 01:00N 35°59' W 005°10'917.6
2017-Sep-10 00:31N 35°59' W 005°21'4 7.0
2017-Sep-10 00:00N 35°57' W 005°25'3 6.4
2017-Sep-09 23:30N 35°56' W 005°29'1413.1
2017-Sep-09 22:24N 35°54' W 005°46'614.3
2017-Sep-09 22:00N 35°53' W 005°53'29817.4
2017-Sep-09 04:54N 32°30' W 010°16'1718.2
2017-Sep-09 03:56N 32°17' W 010°30'918.0
2017-Sep-09 03:25N 32°10' W 010°38'717.9
2017-Sep-09 03:00N 32°05' W 010°44'917.8
2017-Sep-09 02:30N 31°58' W 010°51'1517.4
2017-Sep-09 01:40N 31°48' W 011°03'317.2
2017-Sep-09 01:30N 31°46' W 011°06'917.2
2017-Sep-09 01:00N 31°40' W 011°13'917.8
2017-Sep-09 00:30N 31°34' W 011°20'1017.5
2017-Sep-08 23:56N 31°27' W 011°28'717.3
2017-Sep-08 23:30N 31°22' W 011°34'917.3
2017-Sep-08 23:00N 31°15' W 011°42'917.2
2017-Sep-08 22:30N 31°09' W 011°49'917.1
2017-Sep-08 22:00N 31°03' W 011°56'917.2
2017-Sep-08 21:30N 30°57' W 012°03'917.3
2017-Sep-08 21:00N 30°51' W 012°10'1017.7
2017-Sep-08 20:28N 30°44' W 012°17'1317.9
2017-Sep-08 19:45N 30°35' W 012°27'417.9
2017-Sep-08 19:30N 30°31' W 012°31'1218.2
2017-Sep-08 18:50N 30°23' W 012°41'1717.7
2017-Sep-08 17:51N 30°11' W 012°56'914.1
2017-Sep-08 17:12N 30°04' W 013°03'1 4.7
2017-Sep-08 17:01N 30°03' W 013°02'1 1.4
2017-Sep-08 16:31N 30°04' W 013°02'1 1.1
2017-Sep-08 16:00N 30°05' W 013°02'1 1.0
2017-Sep-08 15:26N 30°05' W 013°01'0 0.6
2017-Sep-08 15:00N 30°05' W 013°01'6 9.7
2017-Sep-08 14:25N 30°01' W 013°06'818.1
2017-Sep-08 14:00N 29°56' W 013°12'1018.0
2017-Sep-08 13:26N 29°48' W 013°20'1218.1
2017-Sep-08 12:47N 29°39' W 013°29'517.9
2017-Sep-08 12:30N 29°36' W 013°33'1117.4
2017-Sep-08 11:53N 29°29' W 013°42'717.3
2017-Sep-08 11:30N 29°24' W 013°48'917.4
2017-Sep-08 10:58N 29°17' W 013°55'1217.4
2017-Sep-08 10:15N 29°09' W 014°05'417.3
2017-Sep-08 10:01N 29°05' W 014°08'917.3
2017-Sep-08 09:30N 28°59' W 014°15'917.3
2017-Sep-08 09:00N 28°51' W 014°20'917.5
2017-Sep-08 08:31N 28°44' W 014°26'1117.5
2017-Sep-08 07:52N 28°36' W 014°34'617.4
2017-Sep-08 07:30N 28°31' W 014°39'917.5
2017-Sep-08 07:00N 28°24' W 014°45'817.0
2017-Sep-08 06:30N 28°18' W 014°51'917.3
2017-Sep-08 06:00N 28°09' W 014°54'917.3
2017-Sep-08 05:30N 28°01' W 014°57'917.4
2017-Sep-08 05:00N 27°53' W 015°01'917.1
2017-Sep-08 04:30N 27°45' W 015°05'917.5
2017-Sep-08 03:59N 27°38' W 015°10'817.2
2017-Sep-08 03:30N 27°30' W 015°15'1116.9
2017-Sep-08 02:49N 27°20' W 015°22'817.1
2017-Sep-08 02:21N 27°14' W 015°26'817.0
2017-Sep-08 01:53N 27°07' W 015°31'1617.1
2017-Sep-08 00:56N 26°53' W 015°41'1317.5
2017-Sep-08 00:12N 26°43' W 015°49'617.7
2017-Sep-07 23:54N 26°38' W 015°52'817.8
2017-Sep-07 23:28N 26°31' W 015°57'  
Track history (hours):
 
Tides and Currents Weather Stations Pressure Air Temp Water Temp Dewpoint Dewpoint Depression Visibility Wind Speed Wind Dir Waves Ship Positions

Maran Gas Agamemnon

Last reported at 2017-Sep-14 16:35 UTC. Time now 2017-Sep-25 13:41 UTC.
Position N 31°24' E 032°17'.
Warning: this ship's position is 10 days out of date.

Length 290 m; draft 11.5 m.

Type: Tanker. MMSI: 241405000.

Date/timePositionNaut miles runAvg speedWind from/ knotsBaromVisibWave heightAir tempDewpointWater temp
2017-Sep-14 16:35N 31°24' E 032°17'0 0.5
2017-Sep-14 16:30N 31°24' E 032°17'2 2.5
2017-Sep-14 15:48N 31°26' E 032°16'3 5.9
2017-Sep-14 15:17N 31°29' E 032°16'3 8.2
2017-Sep-14 14:58N 31°31' E 032°14'4 8.9
2017-Sep-14 14:30N 31°34' E 032°10'5 9.8
2017-Sep-14 13:59N 31°37' E 032°06'710.9
2017-Sep-14 13:22N 31°42' E 032°00'512.9
2017-Sep-14 13:00N 31°45' E 031°56'714.1
2017-Sep-14 12:30N 31°48' E 031°48'815.1
2017-Sep-14 11:59N 31°51' E 031°40'1216.0
2017-Sep-14 11:14N 31°56' E 031°27'86517.1
2017-Sep-12 08:39N 36°21' E 014°52'417.4
2017-Sep-12 08:27N 36°22' E 014°48'817.5
2017-Sep-12 08:00N 36°24' E 014°38'918.5
2017-Sep-12 07:30N 36°26' E 014°27'918.7
2017-Sep-12 07:00N 36°28' E 014°16'919.0
2017-Sep-12 06:30N 36°31' E 014°05'919.0
2017-Sep-12 06:00N 36°33' E 013°53'2618.3
2017-Sep-12 04:36N 36°42' E 013°23'317.9
2017-Sep-12 04:24N 36°44' E 013°19'89017.4
2017-Sep-10 01:13N 35°58' W 005°05'420.3
2017-Sep-10 01:00N 35°59' W 005°10'917.6
2017-Sep-10 00:31N 35°59' W 005°21'4 7.0
2017-Sep-10 00:00N 35°57' W 005°25'3 6.4
2017-Sep-09 23:30N 35°56' W 005°29'1413.1
2017-Sep-09 22:24N 35°54' W 005°46'614.3
2017-Sep-09 22:00N 35°53' W 005°53'29817.4
2017-Sep-09 04:54N 32°30' W 010°16'1718.2
2017-Sep-09 03:56N 32°17' W 010°30'918.0
2017-Sep-09 03:25N 32°10' W 010°38'717.9
2017-Sep-09 03:00N 32°05' W 010°44'917.8
2017-Sep-09 02:30N 31°58' W 010°51'1517.4
2017-Sep-09 01:40N 31°48' W 011°03'317.2
2017-Sep-09 01:30N 31°46' W 011°06'917.2
2017-Sep-09 01:00N 31°40' W 011°13'917.8
2017-Sep-09 00:30N 31°34' W 011°20'1017.5
2017-Sep-08 23:56N 31°27' W 011°28'717.3
2017-Sep-08 23:30N 31°22' W 011°34'917.3
2017-Sep-08 23:00N 31°15' W 011°42'917.2
2017-Sep-08 22:30N 31°09' W 011°49'917.1
2017-Sep-08 22:00N 31°03' W 011°56'917.2
2017-Sep-08 21:30N 30°57' W 012°03'917.3
2017-Sep-08 21:00N 30°51' W 012°10'1017.7
2017-Sep-08 20:28N 30°44' W 012°17'1317.9
2017-Sep-08 19:45N 30°35' W 012°27'417.9
2017-Sep-08 19:30N 30°31' W 012°31'1218.2
2017-Sep-08 18:50N 30°23' W 012°41'1717.7
2017-Sep-08 17:51N 30°11' W 012°56'914.1
2017-Sep-08 17:12N 30°04' W 013°03'1 4.7
2017-Sep-08 17:01N 30°03' W 013°02'1 1.4
2017-Sep-08 16:31N 30°04' W 013°02'1 1.1
2017-Sep-08 16:00N 30°05' W 013°02'1 1.0
2017-Sep-08 15:26N 30°05' W 013°01'0 0.6
2017-Sep-08 15:00N 30°05' W 013°01'6 9.7
2017-Sep-08 14:25N 30°01' W 013°06'818.1
2017-Sep-08 14:00N 29°56' W 013°12'1018.0
2017-Sep-08 13:26N 29°48' W 013°20'1218.1
2017-Sep-08 12:47N 29°39' W 013°29'517.9
2017-Sep-08 12:30N 29°36' W 013°33'1117.4
2017-Sep-08 11:53N 29°29' W 013°42'717.3
2017-Sep-08 11:30N 29°24' W 013°48'917.4
2017-Sep-08 10:58N 29°17' W 013°55'1217.4
2017-Sep-08 10:15N 29°09' W 014°05'417.3
2017-Sep-08 10:01N 29°05' W 014°08'917.3
2017-Sep-08 09:30N 28°59' W 014°15'917.3
2017-Sep-08 09:00N 28°51' W 014°20'917.5
2017-Sep-08 08:31N 28°44' W 014°26'1117.5
2017-Sep-08 07:52N 28°36' W 014°34'617.4
2017-Sep-08 07:30N 28°31' W 014°39'917.5
2017-Sep-08 07:00N 28°24' W 014°45'817.0
2017-Sep-08 06:30N 28°18' W 014°51'917.3
2017-Sep-08 06:00N 28°09' W 014°54'917.3
2017-Sep-08 05:30N 28°01' W 014°57'917.4
2017-Sep-08 05:00N 27°53' W 015°01'917.1
2017-Sep-08 04:30N 27°45' W 015°05'917.5
2017-Sep-08 03:59N 27°38' W 015°10'817.2
2017-Sep-08 03:30N 27°30' W 015°15'1116.9
2017-Sep-08 02:49N 27°20' W 015°22'817.1
2017-Sep-08 02:21N 27°14' W 015°26'817.0
2017-Sep-08 01:53N 27°07' W 015°31'1617.1
2017-Sep-08 00:56N 26°53' W 015°41'1317.5
2017-Sep-08 00:12N 26°43' W 015°49'617.7
2017-Sep-07 23:54N 26°38' W 015°52'817.8
2017-Sep-07 23:28N 26°31' W 015°57'  

Dump ship's entire track history